sensor_id;sensor_type;location;lat;lon;timestamp;P1;durP1;ratioP1;P2;durP2;ratioP2
325;SDS011;150;52.352;14.058;2023-05-10T00:00:28;4.82;;;3.65;;
325;SDS011;150;52.352;14.058;2023-05-10T00:03:00;6.22;;;4.32;;
325;SDS011;150;52.352;14.058;2023-05-10T00:05:37;5.03;;;4.38;;
325;SDS011;150;52.352;14.058;2023-05-10T00:08:06;6.15;;;4.38;;
325;SDS011;150;52.352;14.058;2023-05-10T00:10:35;4.57;;;3.50;;
325;SDS011;150;52.352;14.058;2023-05-10T00:13:04;6.82;;;4.40;;
325;SDS011;150;52.352;14.058;2023-05-10T00:15:31;10.23;;;4.72;;
325;SDS011;150;52.352;14.058;2023-05-10T00:18:01;10.70;;;7.95;;
325;SDS011;150;52.352;14.058;2023-05-10T00:20:30;8.25;;;7.07;;
325;SDS011;150;52.352;14.058;2023-05-10T00:23:00;6.63;;;4.47;;
325;SDS011;150;52.352;14.058;2023-05-10T00:25:27;8.88;;;4.60;;
325;SDS011;150;52.352;14.058;2023-05-10T00:27:55;6.57;;;4.80;;
325;SDS011;150;52.352;14.058;2023-05-10T00:30:25;5.93;;;3.50;;
325;SDS011;150;52.352;14.058;2023-05-10T00:32:51;6.72;;;4.93;;
325;SDS011;150;52.352;14.058;2023-05-10T00:35:19;5.95;;;4.32;;
325;SDS011;150;52.352;14.058;2023-05-10T00:37:48;6.35;;;4.78;;
325;SDS011;150;52.352;14.058;2023-05-10T00:40:15;6.95;;;4.82;;
325;SDS011;150;52.352;14.058;2023-05-10T00:42:42;5.38;;;4.78;;
325;SDS011;150;52.352;14.058;2023-05-10T00:45:08;7.00;;;4.78;;
325;SDS011;150;52.352;14.058;2023-05-10T00:47:39;7.30;;;5.80;;
325;SDS011;150;52.352;14.058;2023-05-10T00:50:06;7.38;;;5.13;;
325;SDS011;150;52.352;14.058;2023-05-10T00:52:35;6.10;;;5.00;;
325;SDS011;150;52.352;14.058;2023-05-10T00:55:02;6.20;;;4.80;;
325;SDS011;150;52.352;14.058;2023-05-10T00:57:30;8.95;;;4.95;;
325;SDS011;150;52.352;14.058;2023-05-10T00:59:57;13.27;;;5.57;;
325;SDS011;150;52.352;14.058;2023-05-10T01:02:25;5.65;;;4.60;;
325;SDS011;150;52.352;14.058;2023-05-10T01:04:52;5.97;;;4.70;;
325;SDS011;150;52.352;14.058;2023-05-10T01:07:19;8.57;;;4.57;;
325;SDS011;150;52.352;14.058;2023-05-10T01:09:47;5.60;;;4.22;;
325;SDS011;150;52.352;14.058;2023-05-10T01:15:30;8.07;;;4.70;;
325;SDS011;150;52.352;14.058;2023-05-10T01:18:15;5.93;;;4.45;;
325;SDS011;150;52.352;14.058;2023-05-10T01:21:01;5.78;;;4.32;;
325;SDS011;150;52.352;14.058;2023-05-10T01:24:17;5.88;;;4.20;;
325;SDS011;150;52.352;14.058;2023-05-10T01:41:16;5.20;;;4.30;;
325;SDS011;150;52.352;14.058;2023-05-10T02:09:17;7.18;;;4.18;;
325;SDS011;150;52.352;14.058;2023-05-10T02:12:47;5.78;;;3.92;;
325;SDS011;150;52.352;14.058;2023-05-10T02:45:18;5.97;;;4.00;;
325;SDS011;150;52.352;14.058;2023-05-10T02:48:29;6.00;;;3.88;;
325;SDS011;150;52.352;14.058;2023-05-10T02:51:09;4.90;;;3.90;;
325;SDS011;150;52.352;14.058;2023-05-10T02:54:08;6.55;;;4.38;;
325;SDS011;150;52.352;14.058;2023-05-10T02:56:51;5.80;;;4.57;;
325;SDS011;150;52.352;14.058;2023-05-10T02:59:47;7.43;;;4.20;;
325;SDS011;150;52.352;14.058;2023-05-10T03:03:02;7.25;;;4.50;;
325;SDS011;150;52.352;14.058;2023-05-10T03:05:53;7.57;;;4.40;;
325;SDS011;150;52.352;14.058;2023-05-10T03:08:32;5.65;;;4.03;;
325;SDS011;150;52.352;14.058;2023-05-10T03:11:29;4.95;;;4.35;;
325;SDS011;150;52.352;14.058;2023-05-10T03:16:24;4.85;;;3.83;;
325;SDS011;150;52.352;14.058;2023-05-10T03:21:00;9.38;;;4.53;;
325;SDS011;150;52.352;14.058;2023-05-10T03:27:20;5.72;;;4.20;;
325;SDS011;150;52.352;14.058;2023-05-10T03:33:06;6.23;;;3.30;;
325;SDS011;150;52.352;14.058;2023-05-10T03:35:56;5.25;;;3.20;;
325;SDS011;150;52.352;14.058;2023-05-10T03:38:28;6.73;;;4.13;;
325;SDS011;150;52.352;14.058;2023-05-10T03:41:07;5.30;;;4.00;;
325;SDS011;150;52.352;14.058;2023-05-10T03:44:16;5.50;;;4.10;;
325;SDS011;150;52.352;14.058;2023-05-10T03:47:31;5.32;;;4.00;;
325;SDS011;150;52.352;14.058;2023-05-10T03:50:29;5.80;;;4.00;;
325;SDS011;150;52.352;14.058;2023-05-10T04:08:08;5.07;;;3.85;;
325;SDS011;150;52.352;14.058;2023-05-10T04:10:48;4.28;;;2.95;;
325;SDS011;150;52.352;14.058;2023-05-10T04:17:51;3.95;;;3.45;;
325;SDS011;150;52.352;14.058;2023-05-10T04:20:15;5.38;;;4.00;;
325;SDS011;150;52.352;14.058;2023-05-10T04:22:54;4.00;;;3.20;;
325;SDS011;150;52.352;14.058;2023-05-10T04:25:39;11.60;;;9.13;;
325;SDS011;150;52.352;14.058;2023-05-10T04:28:13;6.68;;;4.55;;
325;SDS011;150;52.352;14.058;2023-05-10T04:30:48;6.85;;;5.03;;
325;SDS011;150;52.352;14.058;2023-05-10T04:33:16;5.82;;;3.72;;
325;SDS011;150;52.352;14.058;2023-05-10T04:36:07;6.22;;;3.40;;
325;SDS011;150;52.352;14.058;2023-05-10T04:39:18;4.18;;;3.50;;
325;SDS011;150;52.352;14.058;2023-05-10T04:42:42;5.15;;;3.95;;
325;SDS011;150;52.352;14.058;2023-05-10T04:45:43;3.90;;;3.70;;
325;SDS011;150;52.352;14.058;2023-05-10T04:49:12;6.65;;;4.90;;
325;SDS011;150;52.352;14.058;2023-05-10T04:52:04;3.92;;;3.40;;
325;SDS011;150;52.352;14.058;2023-05-10T04:54:31;5.28;;;3.50;;
325;SDS011;150;52.352;14.058;2023-05-10T04:57:08;5.80;;;4.20;;
325;SDS011;150;52.352;14.058;2023-05-10T05:00:14;7.03;;;3.92;;
325;SDS011;150;52.352;14.058;2023-05-10T05:03:01;4.45;;;3.50;;
325;SDS011;150;52.352;14.058;2023-05-10T05:05:39;4.23;;;3.27;;
325;SDS011;150;52.352;14.058;2023-05-10T05:08:23;5.45;;;3.50;;
325;SDS011;150;52.352;14.058;2023-05-10T05:10:54;4.68;;;3.53;;
325;SDS011;150;52.352;14.058;2023-05-10T05:13:48;5.85;;;3.20;;
325;SDS011;150;52.352;14.058;2023-05-10T05:25:49;5.88;;;4.22;;
325;SDS011;150;52.352;14.058;2023-05-10T05:28:33;4.00;;;3.25;;
325;SDS011;150;52.352;14.058;2023-05-10T05:31:03;29.48;;;6.57;;
325;SDS011;150;52.352;14.058;2023-05-10T05:33:55;8.50;;;4.17;;
325;SDS011;150;52.352;14.058;2023-05-10T05:36:24;5.40;;;3.38;;
325;SDS011;150;52.352;14.058;2023-05-10T05:39:04;6.55;;;3.25;;
325;SDS011;150;52.352;14.058;2023-05-10T05:41:46;6.23;;;3.03;;
325;SDS011;150;52.352;14.058;2023-05-10T05:44:47;11.77;;;3.55;;
325;SDS011;150;52.352;14.058;2023-05-10T05:47:39;5.45;;;2.55;;
325;SDS011;150;52.352;14.058;2023-05-10T05:50:21;5.20;;;3.00;;
325;SDS011;150;52.352;14.058;2023-05-10T05:53:06;3.65;;;2.90;;
325;SDS011;150;52.352;14.058;2023-05-10T05:55:38;5.22;;;3.00;;
325;SDS011;150;52.352;14.058;2023-05-10T05:58:11;5.13;;;2.80;;
325;SDS011;150;52.352;14.058;2023-05-10T06:00:46;4.70;;;2.90;;
325;SDS011;150;52.352;14.058;2023-05-10T06:03:17;4.65;;;3.08;;
325;SDS011;150;52.352;14.058;2023-05-10T06:05:47;5.50;;;3.03;;
325;SDS011;150;52.352;14.058;2023-05-10T06:08:30;3.55;;;2.65;;
325;SDS011;150;52.352;14.058;2023-05-10T06:11:07;5.63;;;3.10;;
325;SDS011;150;52.352;14.058;2023-05-10T06:13:38;5.18;;;3.20;;
325;SDS011;150;52.352;14.058;2023-05-10T06:16:09;4.88;;;2.58;;
325;SDS011;150;52.352;14.058;2023-05-10T06:18:51;5.05;;;2.55;;
325;SDS011;150;52.352;14.058;2023-05-10T06:21:29;2.80;;;2.10;;
325;SDS011;150;52.352;14.058;2023-05-10T06:24:50;4.53;;;2.90;;
325;SDS011;150;52.352;14.058;2023-05-10T06:27:07;3.70;;;2.22;;
325;SDS011;150;52.352;14.058;2023-05-10T06:33:05;2.30;;;1.80;;
325;SDS011;150;52.352;14.058;2023-05-10T06:35:44;2.90;;;2.20;;
325;SDS011;150;52.352;14.058;2023-05-10T06:38:15;3.13;;;2.05;;
325;SDS011;150;52.352;14.058;2023-05-10T06:40:56;4.00;;;2.27;;
325;SDS011;150;52.352;14.058;2023-05-10T06:43:33;3.00;;;2.15;;
325;SDS011;150;52.352;14.058;2023-05-10T06:46:19;3.90;;;2.20;;
325;SDS011;150;52.352;14.058;2023-05-10T06:48:59;3.30;;;2.20;;
325;SDS011;150;52.352;14.058;2023-05-10T06:51:55;3.03;;;2.00;;
325;SDS011;150;52.352;14.058;2023-05-10T06:56:59;6.40;;;2.75;;
325;SDS011;150;52.352;14.058;2023-05-10T06:58:51;2.40;;;1.65;;
325;SDS011;150;52.352;14.058;2023-05-10T07:01:26;2.70;;;2.00;;
325;SDS011;150;52.352;14.058;2023-05-10T07:08:11;3.10;;;1.92;;
325;SDS011;150;52.352;14.058;2023-05-10T07:10:59;7.23;;;2.13;;
325;SDS011;150;52.352;14.058;2023-05-10T07:13:37;3.70;;;2.00;;
325;SDS011;150;52.352;14.058;2023-05-10T07:20:05;6.20;;;2.13;;
325;SDS011;150;52.352;14.058;2023-05-10T07:23:00;2.35;;;1.88;;
325;SDS011;150;52.352;14.058;2023-05-10T07:26:01;3.78;;;2.10;;
325;SDS011;150;52.352;14.058;2023-05-10T07:29:15;5.50;;;2.10;;
325;SDS011;150;52.352;14.058;2023-05-10T07:32:12;4.82;;;2.20;;
325;SDS011;150;52.352;14.058;2023-05-10T07:34:47;3.30;;;2.10;;
325;SDS011;150;52.352;14.058;2023-05-10T07:37:29;3.40;;;2.10;;
325;SDS011;150;52.352;14.058;2023-05-10T07:40:26;3.72;;;2.00;;
325;SDS011;150;52.352;14.058;2023-05-10T07:43:01;3.90;;;2.00;;
325;SDS011;150;52.352;14.058;2023-05-10T07:45:34;3.07;;;1.73;;
325;SDS011;150;52.352;14.058;2023-05-10T07:48:05;3.13;;;2.15;;
325;SDS011;150;52.352;14.058;2023-05-10T07:50:35;3.03;;;2.38;;
325;SDS011;150;52.352;14.058;2023-05-10T07:53:25;4.30;;;2.10;;
325;SDS011;150;52.352;14.058;2023-05-10T07:56:48;3.15;;;1.92;;
325;SDS011;150;52.352;14.058;2023-05-10T07:59:21;3.20;;;2.55;;
325;SDS011;150;52.352;14.058;2023-05-10T08:07:02;3.10;;;2.40;;
325;SDS011;150;52.352;14.058;2023-05-10T08:28:16;4.28;;;2.30;;
325;SDS011;150;52.352;14.058;2023-05-10T09:16:05;2.90;;;2.00;;
325;SDS011;150;52.352;14.058;2023-05-10T09:18:57;3.90;;;2.20;;
325;SDS011;150;52.352;14.058;2023-05-10T09:22:09;3.20;;;2.40;;
325;SDS011;150;52.352;14.058;2023-05-10T09:29:17;3.40;;;2.55;;
325;SDS011;150;52.352;14.058;2023-05-10T09:36:08;7.07;;;2.30;;
325;SDS011;150;52.352;14.058;2023-05-10T09:46:16;3.42;;;2.45;;
325;SDS011;150;52.352;14.058;2023-05-10T09:49:21;4.10;;;2.45;;
325;SDS011;150;52.352;14.058;2023-05-10T09:52:18;3.25;;;2.25;;
325;SDS011;150;52.352;14.058;2023-05-10T09:54:59;4.43;;;2.40;;
325;SDS011;150;52.352;14.058;2023-05-10T09:58:22;5.20;;;2.13;;
325;SDS011;150;52.352;14.058;2023-05-10T10:04:11;3.53;;;2.35;;
325;SDS011;150;52.352;14.058;2023-05-10T10:07:21;3.40;;;2.38;;
325;SDS011;150;52.352;14.058;2023-05-10T10:09:59;4.10;;;2.40;;
325;SDS011;150;52.352;14.058;2023-05-10T10:12:48;4.10;;;2.47;;
325;SDS011;150;52.352;14.058;2023-05-10T10:15:41;2.60;;;1.90;;
325;SDS011;150;52.352;14.058;2023-05-10T10:18:27;9.18;;;6.78;;
325;SDS011;150;52.352;14.058;2023-05-10T10:21:10;4.65;;;3.70;;
325;SDS011;150;52.352;14.058;2023-05-10T10:23:51;6.72;;;2.70;;
325;SDS011;150;52.352;14.058;2023-05-10T10:26:40;4.18;;;2.70;;
325;SDS011;150;52.352;14.058;2023-05-10T10:29:30;3.97;;;3.42;;
325;SDS011;150;52.352;14.058;2023-05-10T10:32:18;3.10;;;2.00;;
325;SDS011;150;52.352;14.058;2023-05-10T10:37:52;3.80;;;2.20;;
325;SDS011;150;52.352;14.058;2023-05-10T10:40:31;3.58;;;2.30;;
325;SDS011;150;52.352;14.058;2023-05-10T10:43:38;6.10;;;2.50;;
325;SDS011;150;52.352;14.058;2023-05-10T10:46:22;3.08;;;2.40;;
325;SDS011;150;52.352;14.058;2023-05-10T10:52:49;4.22;;;2.33;;
325;SDS011;150;52.352;14.058;2023-05-10T10:55:26;5.03;;;2.72;;
325;SDS011;150;52.352;14.058;2023-05-10T10:58:35;4.32;;;3.10;;
325;SDS011;150;52.352;14.058;2023-05-10T11:01:53;4.30;;;2.20;;
325;SDS011;150;52.352;14.058;2023-05-10T11:04:48;3.67;;;2.08;;
325;SDS011;150;52.352;14.058;2023-05-10T11:23:30;5.22;;;3.05;;
325;SDS011;150;52.352;14.058;2023-05-10T11:26:19;12.25;;;3.70;;
325;SDS011;150;52.352;14.058;2023-05-10T11:28:56;2.90;;;2.40;;
325;SDS011;150;52.352;14.058;2023-05-10T11:31:42;5.50;;;2.00;;
325;SDS011;150;52.352;14.058;2023-05-10T11:34:36;4.60;;;2.00;;
325;SDS011;150;52.352;14.058;2023-05-10T11:37:35;5.75;;;2.20;;
325;SDS011;150;52.352;14.058;2023-05-10T11:40:23;3.87;;;2.40;;
325;SDS011;150;52.352;14.058;2023-05-10T11:43:09;5.25;;;2.35;;
325;SDS011;150;52.352;14.058;2023-05-10T11:46:04;3.40;;;2.22;;
325;SDS011;150;52.352;14.058;2023-05-10T11:49:21;4.30;;;2.30;;
325;SDS011;150;52.352;14.058;2023-05-10T11:52:28;4.55;;;2.20;;
325;SDS011;150;52.352;14.058;2023-05-10T11:58:39;6.68;;;2.20;;
325;SDS011;150;52.352;14.058;2023-05-10T12:01:24;3.45;;;2.20;;
325;SDS011;150;52.352;14.058;2023-05-10T12:04:01;3.10;;;2.00;;
325;SDS011;150;52.352;14.058;2023-05-10T12:06:40;3.17;;;1.90;;
325;SDS011;150;52.352;14.058;2023-05-10T12:12:11;4.20;;;2.40;;
325;SDS011;150;52.352;14.058;2023-05-10T12:15:29;3.47;;;2.00;;
325;SDS011;150;52.352;14.058;2023-05-10T12:18:59;3.15;;;2.03;;
325;SDS011;150;52.352;14.058;2023-05-10T12:22:07;2.97;;;2.25;;
325;SDS011;150;52.352;14.058;2023-05-10T12:25:48;3.25;;;2.35;;
325;SDS011;150;52.352;14.058;2023-05-10T12:29:21;3.35;;;2.40;;
325;SDS011;150;52.352;14.058;2023-05-10T12:32:10;3.63;;;2.30;;
325;SDS011;150;52.352;14.058;2023-05-10T12:35:16;3.37;;;2.50;;
325;SDS011;150;52.352;14.058;2023-05-10T12:48:21;3.88;;;2.00;;
325;SDS011;150;52.352;14.058;2023-05-10T12:50:56;4.15;;;3.08;;
325;SDS011;150;52.352;14.058;2023-05-10T12:53:52;3.72;;;2.55;;
325;SDS011;150;52.352;14.058;2023-05-10T12:56:51;3.10;;;2.00;;
325;SDS011;150;52.352;14.058;2023-05-10T12:59:58;3.47;;;2.38;;
325;SDS011;150;52.352;14.058;2023-05-10T13:03:13;65.38;;;9.57;;
325;SDS011;150;52.352;14.058;2023-05-10T13:06:00;3.20;;;2.35;;
325;SDS011;150;52.352;14.058;2023-05-10T13:29:22;3.35;;;2.60;;
325;SDS011;150;52.352;14.058;2023-05-10T13:32:02;3.45;;;2.17;;
325;SDS011;150;52.352;14.058;2023-05-10T13:35:09;3.40;;;2.13;;
325;SDS011;150;52.352;14.058;2023-05-10T13:44:09;3.72;;;2.20;;
325;SDS011;150;52.352;14.058;2023-05-10T13:50:49;4.97;;;2.30;;
325;SDS011;150;52.352;14.058;2023-05-10T13:56:09;4.15;;;2.20;;
325;SDS011;150;52.352;14.058;2023-05-10T13:59:00;9.23;;;6.17;;
325;SDS011;150;52.352;14.058;2023-05-10T14:01:45;5.87;;;3.50;;
325;SDS011;150;52.352;14.058;2023-05-10T14:07:37;6.70;;;2.65;;
325;SDS011;150;52.352;14.058;2023-05-10T14:22:27;4.60;;;2.40;;
325;SDS011;150;52.352;14.058;2023-05-10T15:09:41;2.78;;;1.95;;
325;SDS011;150;52.352;14.058;2023-05-10T15:16:10;2.97;;;2.00;;
325;SDS011;150;52.352;14.058;2023-05-10T15:30:36;3.20;;;2.42;;
325;SDS011;150;52.352;14.058;2023-05-10T17:10:14;3.13;;;2.00;;
325;SDS011;150;52.352;14.058;2023-05-10T18:27:26;4.10;;;3.40;;
325;SDS011;150;52.352;14.058;2023-05-10T18:33:12;9.53;;;7.13;;
325;SDS011;150;52.352;14.058;2023-05-10T18:36:52;6.70;;;5.45;;
325;SDS011;150;52.352;14.058;2023-05-10T18:39:38;6.75;;;4.32;;
325;SDS011;150;52.352;14.058;2023-05-10T18:42:21;3.50;;;3.17;;
325;SDS011;150;52.352;14.058;2023-05-10T18:45:08;5.00;;;4.40;;
325;SDS011;150;52.352;14.058;2023-05-10T18:47:54;5.00;;;3.60;;
325;SDS011;150;52.352;14.058;2023-05-10T18:57:27;4.32;;;3.88;;
325;SDS011;150;52.352;14.058;2023-05-10T19:17:31;5.85;;;3.55;;
325;SDS011;150;52.352;14.058;2023-05-10T19:21:25;4.53;;;4.13;;
325;SDS011;150;52.352;14.058;2023-05-10T19:24:32;7.72;;;5.25;;
325;SDS011;150;52.352;14.058;2023-05-10T19:46:47;4.90;;;4.00;;
325;SDS011;150;52.352;14.058;2023-05-10T19:54:59;5.20;;;4.90;;
325;SDS011;150;52.352;14.058;2023-05-10T20:19:51;6.67;;;4.20;;
325;SDS011;150;52.352;14.058;2023-05-10T20:26:44;4.30;;;4.10;;
325;SDS011;150;52.352;14.058;2023-05-10T20:34:11;5.20;;;4.07;;
325;SDS011;150;52.352;14.058;2023-05-10T20:37:37;4.68;;;4.22;;
325;SDS011;150;52.352;14.058;2023-05-10T20:40:32;6.28;;;5.60;;
325;SDS011;150;52.352;14.058;2023-05-10T20:47:03;4.70;;;4.30;;
325;SDS011;150;52.352;14.058;2023-05-10T20:54:20;4.35;;;3.90;;
325;SDS011;150;52.352;14.058;2023-05-10T21:18:58;6.00;;;5.35;;
325;SDS011;150;52.352;14.058;2023-05-10T21:22:29;5.80;;;5.50;;
325;SDS011;150;52.352;14.058;2023-05-10T21:25:41;5.93;;;5.38;;
325;SDS011;150;52.352;14.058;2023-05-10T21:32:20;5.50;;;5.20;;
325;SDS011;150;52.352;14.058;2023-05-10T21:35:07;5.82;;;5.13;;
325;SDS011;150;52.352;14.058;2023-05-10T21:38:23;6.35;;;5.70;;
325;SDS011;150;52.352;14.058;2023-05-10T21:41:37;5.45;;;5.18;;
325;SDS011;150;52.352;14.058;2023-05-10T21:44:30;6.50;;;5.68;;
325;SDS011;150;52.352;14.058;2023-05-10T21:47:14;7.63;;;5.53;;
325;SDS011;150;52.352;14.058;2023-05-10T21:50:04;5.97;;;5.60;;
325;SDS011;150;52.352;14.058;2023-05-10T21:52:33;6.30;;;5.50;;
325;SDS011;150;52.352;14.058;2023-05-10T21:55:00;5.03;;;4.77;;
325;SDS011;150;52.352;14.058;2023-05-10T21:57:28;6.03;;;5.30;;
325;SDS011;150;52.352;14.058;2023-05-10T21:59:55;9.48;;;5.47;;
325;SDS011;150;52.352;14.058;2023-05-10T22:02:21;8.20;;;6.10;;
325;SDS011;150;52.352;14.058;2023-05-10T22:04:48;7.07;;;5.70;;
325;SDS011;150;52.352;14.058;2023-05-10T22:07:16;6.68;;;5.90;;
325;SDS011;150;52.352;14.058;2023-05-10T22:09:43;5.70;;;5.40;;
325;SDS011;150;52.352;14.058;2023-05-10T22:12:10;5.22;;;4.65;;
325;SDS011;150;52.352;14.058;2023-05-10T22:14:37;5.38;;;5.07;;
325;SDS011;150;52.352;14.058;2023-05-10T22:17:04;5.25;;;4.78;;
325;SDS011;150;52.352;14.058;2023-05-10T22:19:30;5.13;;;4.87;;
325;SDS011;150;52.352;14.058;2023-05-10T22:21:57;6.43;;;5.85;;
325;SDS011;150;52.352;14.058;2023-05-10T22:24:25;7.63;;;5.78;;
325;SDS011;150;52.352;14.058;2023-05-10T22:26:52;5.85;;;5.60;;
325;SDS011;150;52.352;14.058;2023-05-10T22:29:19;5.82;;;5.40;;
325;SDS011;150;52.352;14.058;2023-05-10T22:31:45;6.78;;;6.15;;
325;SDS011;150;52.352;14.058;2023-05-10T22:34:13;5.68;;;5.38;;
325;SDS011;150;52.352;14.058;2023-05-10T22:36:40;5.88;;;5.22;;
325;SDS011;150;52.352;14.058;2023-05-10T22:39:06;6.07;;;5.60;;
325;SDS011;150;52.352;14.058;2023-05-10T22:41:34;6.90;;;5.50;;
325;SDS011;150;52.352;14.058;2023-05-10T22:44:01;6.30;;;5.28;;
325;SDS011;150;52.352;14.058;2023-05-10T22:46:29;7.00;;;5.30;;
325;SDS011;150;52.352;14.058;2023-05-10T22:49:00;5.78;;;5.03;;
325;SDS011;150;52.352;14.058;2023-05-10T22:51:26;6.70;;;5.50;;
325;SDS011;150;52.352;14.058;2023-05-10T22:53:53;5.80;;;5.30;;
325;SDS011;150;52.352;14.058;2023-05-10T22:56:20;7.30;;;6.32;;
325;SDS011;150;52.352;14.058;2023-05-10T22:58:48;6.63;;;6.00;;
325;SDS011;150;52.352;14.058;2023-05-10T23:01:15;8.00;;;6.03;;
325;SDS011;150;52.352;14.058;2023-05-10T23:03:42;10.02;;;5.93;;
325;SDS011;150;52.352;14.058;2023-05-10T23:06:09;6.88;;;5.30;;
325;SDS011;150;52.352;14.058;2023-05-10T23:08:35;7.10;;;5.40;;
325;SDS011;150;52.352;14.058;2023-05-10T23:11:02;6.07;;;5.50;;
325;SDS011;150;52.352;14.058;2023-05-10T23:13:29;6.65;;;5.88;;
325;SDS011;150;52.352;14.058;2023-05-10T23:15:57;6.90;;;6.30;;
325;SDS011;150;52.352;14.058;2023-05-10T23:18:29;7.82;;;6.63;;
325;SDS011;150;52.352;14.058;2023-05-10T23:20:55;7.90;;;6.55;;
325;SDS011;150;52.352;14.058;2023-05-10T23:23:22;7.75;;;6.32;;
325;SDS011;150;52.352;14.058;2023-05-10T23:25:49;6.70;;;6.20;;
325;SDS011;150;52.352;14.058;2023-05-10T23:28:16;9.18;;;7.57;;
325;SDS011;150;52.352;14.058;2023-05-10T23:30:42;7.28;;;6.88;;
325;SDS011;150;52.352;14.058;2023-05-10T23:33:10;7.90;;;6.93;;
325;SDS011;150;52.352;14.058;2023-05-10T23:35:38;6.43;;;6.03;;
325;SDS011;150;52.352;14.058;2023-05-10T23:38:04;7.68;;;6.90;;
325;SDS011;150;52.352;14.058;2023-05-10T23:40:31;7.03;;;6.43;;
325;SDS011;150;52.352;14.058;2023-05-10T23:42:58;8.10;;;6.63;;
325;SDS011;150;52.352;14.058;2023-05-10T23:45:24;9.45;;;6.90;;
325;SDS011;150;52.352;14.058;2023-05-10T23:47:51;9.02;;;6.88;;
325;SDS011;150;52.352;14.058;2023-05-10T23:50:19;9.63;;;8.13;;
325;SDS011;150;52.352;14.058;2023-05-10T23:52:46;8.70;;;8.10;;
325;SDS011;150;52.352;14.058;2023-05-10T23:55:12;8.82;;;7.80;;
325;SDS011;150;52.352;14.058;2023-05-10T23:57:39;8.50;;;8.00;;
